Time;durP1;ratioP1;P1;durP2;ratioP2;P2;SDS_P1;SDS_P2;PMS_P1;PMS_P2;Temp;Humidity;BMP_temperature;BMP_pressure;BME280_temperature;BME280_humidity;BME280_pressure;Samples;Min_cycle;Max_cycle;Signal;HPM_P1;HPM_P2
2022/12/14 00:02:01;;;;;;;34.75;19.10;;;;;;;-0.68;100.00;95115.75;5060805;28;20095;-48
2022/12/14 00:04:29;;;;;;;29.92;18.88;;;;;;;-0.64;100.00;95122.34;5065174;28;20080;-45
2022/12/14 00:06:57;;;;;;;29.38;16.80;;;;;;;-0.54;100.00;95110.41;5058302;28;20072;-42
2022/12/14 00:09:26;;;;;;;25.85;16.52;;;;;;;-0.66;100.00;95093.97;5063660;28;20087;-44
2022/12/14 00:11:54;;;;;;;30.10;18.25;;;;;;;-0.31;100.00;95093.19;5064858;28;20116;-42
2022/12/14 00:14:22;;;;;;;25.27;16.30;;;;;;;-0.45;100.00;95107.13;5060149;28;20072;-46
2022/12/14 00:16:50;;;;;;;29.25;19.50;;;;;;;-0.69;100.00;95103.72;5059062;28;20087;-47
2022/12/14 00:19:20;;;;;;;32.65;17.50;;;;;;;-0.63;100.00;95088.56;5059784;28;20073;-47
2022/12/14 00:21:48;;;;;;;27.07;17.70;;;;;;;-0.68;100.00;95093.28;5058450;28;20083;-44
2022/12/14 00:24:16;;;;;;;29.30;17.27;;;;;;;-0.88;100.00;95092.09;5061194;28;20540;-46
2022/12/14 00:26:45;;;;;;;29.73;18.48;;;;;;;-0.98;100.00;95088.50;5059506;28;20080;-49
2022/12/14 00:29:13;;;;;;;31.15;19.73;;;;;;;-0.78;100.00;95079.34;5061739;28;20084;-45
2022/12/14 00:31:41;;;;;;;32.75;19.50;;;;;;;-0.69;100.00;95070.91;5061781;28;20083;-45
2022/12/14 00:34:10;;;;;;;27.05;16.42;;;;;;;-0.60;100.00;95079.78;5058603;28;20072;-46
2022/12/14 00:36:39;;;;;;;27.70;15.57;;;;;;;-0.14;100.00;95097.13;5053093;28;20077;-42
2022/12/14 00:39:07;;;;;;;28.13;17.10;;;;;;;-0.21;100.00;95103.69;5056560;28;20080;-44
2022/12/14 00:41:36;;;;;;;29.00;16.70;;;;;;;0.15;100.00;95103.56;5060940;28;20079;-44
2022/12/14 00:44:04;;;;;;;36.13;19.98;;;;;;;0.15;100.00;95098.38;5055861;28;20090;-45
2022/12/14 00:46:32;;;;;;;17.33;13.20;;;;;;;-0.40;100.00;95089.50;5065813;28;20541;-46
2022/12/14 00:49:01;;;;;;;29.15;16.77;;;;;;;-0.36;100.00;95093.53;5059161;28;20080;-42
2022/12/14 00:51:29;;;;;;;31.13;18.48;;;;;;;-0.45;100.00;95089.00;5056519;28;20072;-45
2022/12/14 00:53:59;;;;;;;27.27;16.95;;;;;;;-0.03;100.00;95076.44;5057414;28;20080;-47
2022/12/14 00:56:27;;;;;;;20.40;12.63;;;;;;;-0.55;100.00;95081.09;5061455;28;20080;-47
2022/12/14 00:58:55;;;;;;;28.33;18.10;;;;;;;-0.07;100.00;95082.78;5054642;28;20091;-45
2022/12/14 01:01:23;;;;;;;28.33;17.15;;;;;;;-0.12;100.00;95090.06;5056945;28;20118;-47
2022/12/14 01:04:15;;;;;;;30.92;19.65;;;;;;;-0.22;100.00;95089.91;5060525;28;20069;-48
2022/12/14 01:06:40;;;;;;;28.92;18.23;;;;;;;-0.35;100.00;95094.34;5055223;28;20529;-46
2022/12/14 01:09:10;;;;;;;28.08;17.70;;;;;;;0.02;100.00;95082.09;5056289;28;20079;-47
2022/12/14 01:11:38;;;;;;;31.00;16.73;;;;;;;0.47;100.00;95079.56;5052108;28;20089;-45
2022/12/14 01:14:07;;;;;;;28.65;17.40;;;;;;;0.47;100.00;95084.75;5057559;28;20502;-45
2022/12/14 01:16:35;;;;;;;26.67;16.80;;;;;;;0.43;100.00;95104.91;5060925;28;20152;-47
2022/12/14 01:19:03;;;;;;;27.98;16.00;;;;;;;0.50;100.00;95102.69;5056269;28;20080;-44
2022/12/14 01:21:32;;;;;;;29.95;17.38;;;;;;;0.54;100.00;95111.88;5057324;28;20088;-44
2022/12/14 01:24:02;;;;;;;30.30;17.55;;;;;;;0.81;100.00;95090.75;5063034;28;20090;-43
2022/12/14 01:26:35;;;;;;;27.13;17.25;;;;;;;-0.13;100.00;95109.97;5056903;28;20091;-46
2022/12/14 01:29:04;;;;;;;26.48;14.82;;;;;;;0.27;100.00;95108.78;5060042;28;20091;-50
2022/12/14 01:31:35;;;;;;;28.88;17.75;;;;;;;0.37;100.00;95101.94;5059721;28;20090;-46
2022/12/14 01:34:03;;;;;;;27.08;16.98;;;;;;;0.46;100.00;95096.06;5060646;28;20102;-45
2022/12/14 01:36:34;;;;;;;29.48;18.48;;;;;;;-0.13;100.00;95091.84;5055658;28;20268;-50
2022/12/14 01:39:02;;;;;;;;;;;;;;;0.04;100.00;95080.22;5057194;28;20470;-46
2022/12/14 01:41:33;;;;;;;21.58;13.95;;;;;;;-0.27;100.00;95085.09;5055561;28;20446;-46
2022/12/14 01:44:03;;;;;;;28.48;18.13;;;;;;;-0.06;100.00;95093.03;5063342;28;20094;-43
2022/12/14 01:46:36;;;;;;;23.88;14.95;;;;;;;0.01;100.00;95090.00;5059682;28;20084;-44
2022/12/14 01:49:10;;;;;;;28.13;14.95;;;;;;;-0.38;100.00;95099.75;5052775;28;20077;-44
2022/12/14 01:51:40;;;;;;;28.00;16.85;;;;;;;0.17;100.00;95106.88;5063258;28;20096;-43
2022/12/14 01:54:11;;;;;;;24.27;15.07;;;;;;;0.20;100.00;95095.44;5061439;28;20095;-42
2022/12/14 01:56:43;;;;;;;27.08;17.40;;;;;;;0.13;100.00;95083.88;5056440;28;20080;-46
2022/12/14 01:59:14;;;;;;;24.20;15.60;;;;;;;-0.01;100.00;95074.56;5054578;28;20194;-48
2022/12/14 02:01:43;;;;;;;30.98;17.02;;;;;;;0.11;100.00;95073.66;5054214;28;20522;-45
2022/12/14 02:04:17;;;;;;;23.38;14.63;;;;;;;-0.04;100.00;95085.13;5060503;28;20107;-47
2022/12/14 02:06:48;;;;;;;26.88;17.35;;;;;;;0.40;100.00;95083.56;5058202;28;20072;-43
2022/12/14 02:09:18;;;;;;;23.15;15.60;;;;;;;0.29;100.00;95073.19;5055781;28;20560;-45
2022/12/14 02:11:52;;;;;;;15.25;11.52;;;;;;;-0.38;100.00;95064.34;5059233;28;20075;-42
2022/12/14 02:14:20;;;;;;;26.00;15.65;;;;;;;0.18;100.00;95053.28;5063168;28;20080;-48
2022/12/14 02:16:50;;;;;;;29.52;18.20;;;;;;;-0.04;100.00;95062.63;5053869;28;20083;-44
2022/12/14 02:19:18;;;;;;;19.38;13.18;;;;;;;-0.12;100.00;95056.41;5059058;28;20087;-48
2022/12/14 02:22:05;;;;;;;27.58;16.35;;;;;;;-0.26;100.00;95050.47;5062399;28;20092;-45
2022/12/14 02:25:06;;;;;;;28.17;18.98;;;;;;;-0.13;100.00;95057.34;5060774;28;20077;-41
2022/12/14 02:28:02;;;;;;;27.20;16.38;;;;;;;0.31;100.00;95061.78;5047924;28;20139;-47
2022/12/14 02:30:35;;;;;;;26.75;16.35;;;;;;;0.14;100.00;95070.00;5053374;28;20071;-42
2022/12/14 02:33:31;;;;;;;25.50;18.67;;;;;;;-0.32;100.00;95063.03;5053701;28;20487;-41
2022/12/14 02:36:02;;;;;;;25.48;14.52;;;;;;;-0.23;100.00;95051.19;5056105;28;20118;-43
2022/12/14 02:38:45;;;;;;;31.77;19.52;;;;;;;0.02;100.00;95048.41;5062957;28;20074;-43
2022/12/14 02:41:17;;;;;;;26.80;18.33;;;;;;;-0.77;100.00;95047.34;5058990;28;20064;-46
2022/12/14 02:43:51;;;;;;;25.42;15.55;;;;;;;-0.25;100.00;95025.38;5065426;28;20064;-42
2022/12/14 02:46:25;;;;;;;24.63;14.82;;;;;;;-0.27;100.00;95020.34;5056824;28;20079;-42
2022/12/14 02:48:58;;;;;;;32.15;19.50;;;;;;;-0.47;100.00;95015.81;5056097;28;20081;-44
2022/12/14 02:51:34;;;;;;;31.33;16.83;;;;;;;-0.11;100.00;95009.63;5060058;28;20129;-42
2022/12/14 02:54:07;;;;;;;27.15;17.05;;;;;;;0.08;100.00;95013.44;5061373;28;20088;-42
2022/12/14 02:56:39;;;;;;;26.63;16.30;;;;;;;0.18;100.00;95020.41;5057223;28;20553;-45
2022/12/14 02:59:09;;;;;;;28.40;16.98;;;;;;;0.17;100.00;95036.06;5055975;28;20071;-42
2022/12/14 03:01:39;;;;;;;27.20;17.87;;;;;;;-0.04;100.00;95028.97;5059569;28;20084;-43
2022/12/14 03:04:08;;;;;;;29.67;18.52;;;;;;;0.28;100.00;95035.25;5058495;28;20064;-46
2022/12/14 03:06:37;;;;;;;25.42;16.17;;;;;;;-0.11;100.00;95019.19;5054811;28;20791;-47
2022/12/14 03:09:07;;;;;;;24.50;15.52;;;;;;;-0.16;100.00;95005.75;5056766;28;20087;-40
2022/12/14 03:11:41;;;;;;;27.58;16.05;;;;;;;-0.24;100.00;95003.75;5052256;28;20068;-47
2022/12/14 03:14:12;;;;;;;13.48;10.48;;;;;;;-0.60;100.00;94997.75;5055861;28;20510;-43
2022/12/14 03:16:44;;;;;;;13.25;8.73;;;;;;;-0.30;100.00;94983.47;5053189;28;20183;-42
2022/12/14 03:19:16;;;;;;;18.20;12.85;;;;;;;-0.44;100.00;94992.28;5053598;28;20083;-42
2022/12/14 03:21:48;;;;;;;22.08;13.52;;;;;;;0.04;100.00;94975.75;5055721;28;20080;-43
2022/12/14 03:24:21;;;;;;;25.23;15.55;;;;;;;0.00;100.00;94982.94;5057597;28;20076;-43
2022/12/14 03:26:54;;;;;;;24.55;15.30;;;;;;;-0.04;100.00;94981.50;5064100;28;20065;-43
2022/12/14 03:29:27;;;;;;;22.38;14.48;;;;;;;-0.21;100.00;94994.91;5055564;28;20064;-42
2022/12/14 03:31:59;;;;;;;26.55;16.65;;;;;;;0.25;100.00;94994.84;5062072;28;20088;-43
2022/12/14 03:34:31;;;;;;;25.30;15.05;;;;;;;0.43;100.00;95000.38;5058913;28;20084;-46
2022/12/14 03:37:04;;;;;;;24.77;16.20;;;;;;;0.10;100.00;94996.00;5061849;28;20084;-44
2022/12/14 03:39:34;;;;;;;26.30;17.63;;;;;;;-0.02;100.00;95006.34;5059059;28;20087;-48
2022/12/14 03:42:06;;;;;;;24.17;16.33;;;;;;;0.18;100.00;94997.06;5064255;28;20520;-47
2022/12/14 03:44:37;;;;;;;25.20;15.20;;;;;;;0.75;100.00;94992.66;5064816;28;20088;-43
2022/12/14 03:47:26;;;;;;;28.33;16.88;;;;;;;0.76;100.00;94991.72;5057024;28;20076;-44
2022/12/14 03:49:59;;;;;;;26.60;16.58;;;;;;;0.39;100.00;94980.81;5060992;28;20077;-43
2022/12/14 03:52:33;;;;;;;30.75;16.10;;;;;;;0.52;100.00;94976.31;5059921;28;20487;-47
2022/12/14 03:55:09;;;;;;;24.08;16.02;;;;;;;0.33;100.00;94981.28;5063834;28;20076;-39
2022/12/14 03:57:47;;;;;;;22.65;13.90;;;;;;;0.69;100.00;94978.41;5056985;28;20084;-48
2022/12/14 04:00:19;;;;;;;26.52;15.95;;;;;;;0.52;100.00;94978.91;5059372;28;20091;-46
2022/12/14 04:02:53;;;;;;;23.13;14.35;;;;;;;0.58;100.00;94968.03;5057948;28;20096;-46
2022/12/14 04:05:26;;;;;;;27.77;17.58;;;;;;;0.77;100.00;94983.00;5059169;28;20432;-41
2022/12/14 04:08:02;;;;;;;25.80;14.30;;;;;;;0.54;100.00;94969.22;5064335;28;20526;-46
2022/12/14 04:19:19;;;;;;;25.27;15.65;;;;;;;0.57;100.00;94973.34;5044689;28;20108;-43
2022/12/14 04:21:51;;;;;;;24.23;16.83;;;;;;;0.72;100.00;94969.53;5054413;28;20076;-43
2022/12/14 04:27:14;;;;;;;24.38;16.60;;;;;;;0.72;100.00;94961.75;5042453;28;20091;-44
2022/12/14 04:29:58;;;;;;;27.92;16.20;;;;;;;0.87;100.00;94964.94;5057441;28;20081;-43
2022/12/14 04:32:30;;;;;;;28.50;17.10;;;;;;;0.43;100.00;94956.28;5060551;28;20080;-43
2022/12/14 04:35:04;;;;;;;21.33;14.40;;;;;;;0.22;100.00;94949.22;5064427;28;20091;-51
2022/12/14 04:37:35;;;;;;;22.85;15.88;;;;;;;0.44;100.00;94953.56;5062327;28;20041;-44
2022/12/14 04:40:07;;;;;;;22.70;14.63;;;;;;;0.56;100.00;94946.59;5063278;28;20088;-46
2022/12/14 04:42:41;;;;;;;25.10;16.45;;;;;;;0.90;100.00;94949.94;5060388;28;20084;-44
2022/12/14 04:45:13;;;;;;;27.77;17.88;;;;;;;0.33;100.00;94951.00;5053066;28;20459;-42
2022/12/14 04:47:45;;;;;;;24.27;15.68;;;;;;;0.53;100.00;94938.25;5055736;28;20091;-41
2022/12/14 04:50:18;;;;;;;21.38;14.57;;;;;;;0.43;100.00;94931.19;5056116;28;20088;-44
2022/12/14 04:52:48;;;;;;;25.00;17.17;;;;;;;0.27;100.00;94935.09;5058810;28;20107;-44
2022/12/14 04:55:22;;;;;;;25.10;17.38;;;;;;;0.06;100.00;94929.81;5061274;28;20076;-44
2022/12/14 04:57:54;;;;;;;25.90;16.70;;;;;;;0.46;100.00;94912.78;5058706;28;20094;-46
2022/12/14 05:00:22;;;;;;;28.02;18.05;;;;;;;0.52;100.00;94915.81;5061744;28;20601;-44
2022/12/14 05:03:05;;;;;;;24.50;15.20;;;;;;;0.51;100.00;94914.19;5058924;28;20553;-44
2022/12/14 05:05:41;;;;;;;22.27;14.20;;;;;;;0.29;100.00;94923.66;5055023;28;20107;-45
2022/12/14 05:08:16;;;;;;;26.63;17.42;;;;;;;0.04;100.00;94922.16;5057089;28;20084;-45
2022/12/14 05:10:48;;;;;;;28.17;16.63;;;;;;;0.67;100.00;94922.41;5059955;28;20080;-43
2022/12/14 05:13:20;;;;;;;25.17;15.45;;;;;;;0.36;100.00;94918.81;5054855;28;20160;-48
2022/12/14 05:15:51;;;;;;;29.30;15.15;;;;;;;0.51;100.00;94904.63;5060012;28;20083;-44
2022/12/14 05:18:19;;;;;;;26.40;17.30;;;;;;;0.47;100.00;94904.06;5057326;28;20522;-41
2022/12/14 05:20:49;;;;;;;27.50;14.82;;;;;;;0.59;100.00;94906.63;5057030;28;20084;-44
2022/12/14 05:23:18;;;;;;;24.98;16.45;;;;;;;0.53;100.00;94901.94;5061072;28;20545;-46
2022/12/14 05:25:46;;;;;;;26.75;14.38;;;;;;;0.68;100.00;94908.47;5054438;28;20479;-48
2022/12/14 05:28:16;;;;;;;24.42;16.13;;;;;;;0.79;100.00;94918.00;5061232;28;20084;-44
2022/12/14 05:30:44;;;;;;;27.98;17.70;;;;;;;0.57;100.00;94916.31;5057522;28;20519;-48
2022/12/14 05:33:18;;;;;;;28.02;15.93;;;;;;;1.05;100.00;94910.72;5060214;28;20475;-46
2022/12/14 05:35:46;;;;;;;29.08;18.58;;;;;;;0.64;100.00;94910.50;5052834;28;20087;-45
2022/12/14 05:38:16;;;;;;;28.13;17.75;;;;;;;1.50;100.00;94915.66;5060099;28;20581;-48
2022/12/14 05:40:44;;;;;;;29.90;18.07;;;;;;;1.16;100.00;94908.88;5058680;28;20481;-45
2022/12/14 05:43:12;;;;;;;33.45;17.88;;;;;;;0.98;100.00;94902.59;5057824;28;20080;-46
2022/12/14 05:45:40;;;;;;;33.90;18.38;;;;;;;1.14;100.00;94903.00;5058524;28;20069;-46
2022/12/14 05:48:09;;;;;;;25.92;14.95;;;;;;;0.79;100.00;94905.03;5057915;28;20621;-43
2022/12/14 05:50:37;;;;;;;28.42;15.63;;;;;;;0.39;100.00;94896.06;5061763;28;20076;-41
2022/12/14 05:53:07;;;;;;;27.88;19.10;;;;;;;-0.06;100.00;94897.91;5057710;28;20064;-47
2022/12/14 05:55:36;;;;;;;26.27;17.77;;;;;;;0.36;100.00;94891.13;5055169;28;20159;-43
2022/12/14 05:58:05;;;;;;;30.47;19.60;;;;;;;0.25;100.00;94883.38;5053942;28;20098;-44
2022/12/14 06:00:33;;;;;;;28.65;16.23;;;;;;;0.43;100.00;94873.31;5058811;28;20072;-43
2022/12/14 06:03:01;;;;;;;29.05;18.13;;;;;;;0.39;100.00;94879.69;5059816;28;20084;-43
2022/12/14 06:05:30;;;;;;;25.40;15.52;;;;;;;0.30;100.00;94868.28;5058610;28;20523;-49
2022/12/14 06:07:58;;;;;;;30.80;17.95;;;;;;;-0.01;100.00;94868.09;5064982;28;21753;-43
2022/12/14 06:10:27;;;;;;;26.77;16.35;;;;;;;0.39;100.00;94858.97;5056545;28;20721;-48
2022/12/14 06:12:57;;;;;;;30.02;19.45;;;;;;;0.56;100.00;94855.84;5059249;28;20789;-47
2022/12/14 06:15:26;;;;;;;22.83;14.65;;;;;;;-0.10;100.00;94871.41;5055752;28;20095;-49
2022/12/14 06:18:01;;;;;;;26.05;16.38;;;;;;;0.08;100.00;94865.75;5051182;28;20089;-46
2022/12/14 06:20:29;;;;;;;28.77;17.67;;;;;;;0.47;100.00;94856.56;5049217;28;20671;-44
2022/12/14 06:22:57;;;;;;;29.45;17.42;;;;;;;0.50;100.00;94855.50;5057590;28;20065;-43
2022/12/14 06:25:26;;;;;;;29.42;17.58;;;;;;;0.02;100.00;94853.25;5061828;28;20569;-44
2022/12/14 06:27:55;;;;;;;25.67;16.33;;;;;;;0.15;100.00;94844.41;5050643;28;20088;-44
2022/12/14 06:30:23;;;;;;;28.00;17.38;;;;;;;0.40;100.00;94842.44;5061245;28;20522;-43
2022/12/14 06:32:52;;;;;;;23.80;14.88;;;;;;;0.14;100.00;94841.94;5067087;28;20076;-45
2022/12/14 06:35:20;;;;;;;26.48;15.15;;;;;;;0.27;100.00;94837.41;5053101;28;20098;-47
2022/12/14 06:37:48;;;;;;;25.63;15.73;;;;;;;0.50;100.00;94832.97;5049287;28;20080;-46
2022/12/14 06:40:17;;;;;;;27.80;15.00;;;;;;;0.04;100.00;94841.84;5055658;28;20549;-45
2022/12/14 06:42:47;;;;;;;25.35;17.65;;;;;;;0.60;100.00;94836.47;5048652;28;20095;-45
2022/12/14 06:45:17;;;;;;;28.83;17.67;;;;;;;0.84;100.00;94822.47;5062173;28;20103;-48
2022/12/14 06:47:45;;;;;;;24.77;18.02;;;;;;;0.27;100.00;94828.81;5049361;28;20545;-47
2022/12/14 06:50:14;;;;;;;27.40;17.02;;;;;;;0.84;100.00;94823.28;5053394;28;20095;-43
2022/12/14 06:52:42;;;;;;;21.20;14.40;;;;;;;0.09;100.00;94833.69;5055417;28;20080;-46
2022/12/14 06:55:10;;;;;;;17.52;11.43;;;;;;;-0.03;100.00;94822.53;5061350;28;20088;-43
2022/12/14 06:57:39;;;;;;;27.98;16.95;;;;;;;0.28;100.00;94827.88;5051818;28;20087;-43
2022/12/14 07:00:11;;;;;;;29.40;17.45;;;;;;;0.27;100.00;94819.25;5055351;28;20651;-41
2022/12/14 07:02:40;;;;;;;21.90;11.98;;;;;;;0.09;100.00;94818.97;5071751;28;20081;-45
2022/12/14 07:05:09;;;;;;;19.15;12.63;;;;;;;0.18;100.00;94826.00;5063001;28;20080;-44
2022/12/14 07:07:37;;;;;;;26.80;15.73;;;;;;;0.52;100.00;94823.31;5065239;28;20072;-42
2022/12/14 07:10:07;;;;;;;24.88;13.95;;;;;;;0.19;100.00;94827.66;5061120;28;20092;-49
2022/12/14 07:12:35;;;;;;;29.75;17.67;;;;;;;0.77;100.00;94822.16;5064325;28;20076;-43
2022/12/14 07:15:04;;;;;;;30.92;18.85;;;;;;;0.85;100.00;94818.91;5054119;28;20080;-47
2022/12/14 07:17:35;;;;;;;28.42;18.70;;;;;;;0.36;100.00;94815.94;5071758;28;20514;-47
2022/12/14 07:20:07;;;;;;;22.92;15.15;;;;;;;0.75;100.00;94812.84;5063618;28;20092;-43
2022/12/14 07:22:36;;;;;;;28.75;17.50;;;;;;;1.19;100.00;94815.16;5061775;28;20083;-46
2022/12/14 07:25:04;;;;;;;24.73;14.88;;;;;;;0.43;100.00;94813.69;5069314;28;20095;-43
2022/12/14 07:27:33;;;;;;;20.75;13.07;;;;;;;0.65;100.00;94807.56;5057457;28;20519;-45
2022/12/14 07:30:01;;;;;;;25.42;16.33;;;;;;;1.00;100.00;94811.63;5061865;28;20077;-45
2022/12/14 07:32:30;;;;;;;27.98;17.00;;;;;;;1.05;100.00;94806.91;5068392;28;20084;-47
2022/12/14 07:34:58;;;;;;;28.55;17.73;;;;;;;0.96;100.00;94811.06;5061933;28;20096;-47
2022/12/14 07:37:27;;;;;;;24.58;15.60;;;;;;;0.93;100.00;94809.56;5052262;28;20105;-43
2022/12/14 07:39:56;;;;;;;27.53;16.90;;;;;;;0.56;100.00;94797.97;5062709;28;20088;-41
2022/12/14 07:42:24;;;;;;;34.55;19.23;;;;;;;1.01;100.00;94795.13;5061675;28;20501;-41
2022/12/14 07:44:52;;;;;;;28.42;17.17;;;;;;;0.67;100.00;94796.13;5052174;28;20080;-48
2022/12/14 07:47:20;;;;;;;26.02;17.23;;;;;;;1.29;100.00;94791.03;5055642;28;20091;-50
2022/12/14 07:49:49;;;;;;;19.65;12.90;;;;;;;0.67;100.00;94787.53;5066113;28;20080;-47
2022/12/14 07:52:17;;;;;;;21.58;13.48;;;;;;;1.11;100.00;94791.63;5062542;28;20467;-42
2022/12/14 07:54:47;;;;;;;27.30;16.75;;;;;;;1.54;100.00;94798.38;5058407;28;20084;-46
2022/12/14 07:57:16;;;;;;;28.80;18.83;;;;;;;1.33;100.00;94788.03;5062428;28;20110;-46
2022/12/14 07:59:45;;;;;;;32.63;18.67;;;;;;;1.27;100.00;94791.16;5062806;28;20522;-44
2022/12/14 08:02:13;;;;;;;29.83;16.92;;;;;;;1.93;100.00;94790.75;5057637;28;20087;-45
2022/12/14 08:04:41;;;;;;;29.80;19.38;;;;;;;1.49;100.00;94789.38;5069877;28;20076;-47
2022/12/14 08:07:10;;;;;;;28.42;17.48;;;;;;;1.68;100.00;94784.22;5057853;28;20084;-47
2022/12/14 08:09:38;;;;;;;28.52;17.05;;;;;;;2.03;100.00;94781.19;5052490;28;20076;-43
2022/12/14 08:12:08;;;;;;;28.17;18.25;;;;;;;1.77;100.00;94780.03;5060440;28;20084;-44
2022/12/14 08:14:36;;;;;;;29.60;18.05;;;;;;;1.31;100.00;94776.16;5054344;28;20081;-44
2022/12/14 08:17:04;;;;;;;27.58;17.23;;;;;;;1.69;100.00;94772.91;5051459;28;20084;-47
2022/12/14 08:19:33;;;;;;;26.92;17.58;;;;;;;1.34;100.00;94771.53;5051649;28;20081;-44
2022/12/14 08:22:01;;;;;;;25.75;17.10;;;;;;;1.73;100.00;94773.44;5057208;28;20501;-43
2022/12/14 08:24:29;;;;;;;22.65;13.95;;;;;;;1.29;100.00;94770.28;5066879;28;20080;-44
2022/12/14 08:26:58;;;;;;;29.63;17.23;;;;;;;1.97;100.00;94766.13;5069381;28;20568;-48
2022/12/14 08:29:27;;;;;;;27.42;17.33;;;;;;;1.16;100.00;94762.69;5054823;28;20076;-42
2022/12/14 08:31:56;;;;;;;34.13;19.93;;;;;;;1.49;100.00;94756.41;5064156;28;20084;-42
2022/12/14 08:34:24;;;;;;;30.95;19.02;;;;;;;1.86;100.00;94741.06;5057154;28;20088;-43
2022/12/14 08:36:52;;;;;;;28.23;17.23;;;;;;;1.58;100.00;94724.47;5054768;28;20565;-42
2022/12/14 08:39:21;;;;;;;26.40;15.52;;;;;;;1.00;100.00;94739.81;5058256;28;20088;-41
2022/12/14 08:41:49;;;;;;;24.63;15.52;;;;;;;1.29;100.00;94737.34;5059558;28;20085;-41
2022/12/14 08:44:17;;;;;;;27.33;13.98;;;;;;;1.41;100.00;94745.84;5057796;28;20084;-41
2022/12/14 08:46:47;;;;;;;27.38;17.50;;;;;;;1.15;100.00;94748.06;5057800;28;20080;-41
2022/12/14 08:49:16;;;;;;;21.92;15.00;;;;;;;1.41;100.00;94735.44;5062767;28;20084;-41
2022/12/14 08:51:44;;;;;;;27.65;17.90;;;;;;;1.78;100.00;94725.31;5063715;28;20734;-42
2022/12/14 08:54:12;;;;;;;28.25;16.63;;;;;;;2.20;100.00;94734.66;5060059;28;20521;-47
2022/12/14 08:56:41;;;;;;;29.00;17.13;;;;;;;1.44;100.00;94748.19;5058638;28;20118;-45
2022/12/14 08:59:09;;;;;;;28.23;16.95;;;;;;;2.49;100.00;94738.09;5063767;28;20080;-41
2022/12/14 09:01:59;;;;;;;30.92;18.65;;;;;;;2.38;100.00;94738.25;5053933;28;20084;-43
2022/12/14 09:04:27;;;;;;;24.77;16.35;;;;;;;2.04;100.00;94745.63;5060102;28;20081;-43
2022/12/14 09:06:56;;;;;;;30.15;16.85;;;;;;;1.81;100.00;94745.84;5057087;28;20092;-47
2022/12/14 09:09:24;;;;;;;26.63;17.02;;;;;;;2.16;100.00;94733.28;5063559;28;20092;-44
2022/12/14 09:11:52;;;;;;;27.92;17.42;;;;;;;2.23;100.00;94731.78;5060521;28;20064;-42
2022/12/14 09:14:21;;;;;;;31.42;17.92;;;;;;;2.03;100.00;94734.41;5053452;28;20088;-42
2022/12/14 09:16:49;;;;;;;29.13;17.65;;;;;;;2.07;100.00;94733.16;5060457;28;20088;-44
2022/12/14 09:19:18;;;;;;;33.80;20.60;;;;;;;1.57;100.00;94738.38;5052712;28;20091;-47
2022/12/14 09:21:47;;;;;;;30.88;19.77;;;;;;;1.87;100.00;94729.72;5066312;28;20080;-41
2022/12/14 09:24:15;;;;;;;29.35;18.58;;;;;;;2.24;100.00;94713.47;5059452;28;20103;-45
2022/12/14 09:26:44;;;;;;;26.60;16.45;;;;;;;1.85;100.00;94703.03;5056550;28;20103;-41
2022/12/14 09:29:14;;;;;;;27.20;17.42;;;;;;;1.48;100.00;94708.03;5050548;28;20546;-44
2022/12/14 09:31:43;;;;;;;33.35;19.95;;;;;;;1.84;100.00;94696.19;5050224;28;20080;-45
2022/12/14 09:34:12;;;;;;;28.80;16.10;;;;;;;1.86;100.00;94693.47;5050316;28;20617;-43
2022/12/14 09:36:42;;;;;;;26.90;18.02;;;;;;;1.87;100.00;94692.50;5049794;28;20095;-43
2022/12/14 09:39:13;;;;;;;25.73;16.73;;;;;;;2.19;100.00;94678.44;5057733;28;20107;-42
2022/12/14 09:41:53;;;;;;;22.20;13.70;;;;;;;1.65;100.00;94676.22;5049744;28;20874;-44
2022/12/14 09:44:37;;;;;;;30.55;19.20;;;;;;;1.95;100.00;94664.06;5056996;28;20467;-42
2022/12/14 09:47:10;;;;;;;25.70;16.55;;;;;;;2.51;100.00;94662.50;5059658;28;20110;-48
2022/12/14 09:49:42;;;;;;;29.67;18.20;;;;;;;2.61;100.00;94658.09;5052227;28;20114;-44
2022/12/14 09:52:16;;;;;;;33.50;19.40;;;;;;;2.22;100.00;94665.97;5050409;28;20095;-47
2022/12/14 09:54:46;;;;;;;31.33;20.35;;;;;;;2.04;100.00;94654.63;5061013;28;20098;-44
2022/12/14 09:57:24;;;;;;;31.20;19.20;;;;;;;2.21;100.00;94643.53;5069371;28;20143;-45
2022/12/14 09:59:53;;;;;;;27.33;16.65;;;;;;;2.41;100.00;94641.75;5055546;28;20083;-43
2022/12/14 10:02:28;;;;;;;26.55;16.27;;;;;;;2.57;100.00;94654.97;5063391;28;20522;-42
2022/12/14 10:05:06;;;;;;;29.42;17.60;;;;;;;2.74;100.00;94643.00;5054121;28;20085;-42
2022/12/14 10:07:40;;;;;;;21.58;13.25;;;;;;;2.47;100.00;94640.34;5059783;28;20527;-47
2022/12/14 10:10:17;;;;;;;23.27;14.13;;;;;;;2.61;100.00;94630.31;5056188;28;20615;-43
2022/12/14 10:12:53;;;;;;;30.48;18.27;;;;;;;2.51;100.00;94624.31;5062751;28;20085;-45
2022/12/14 10:15:26;;;;;;;25.52;17.38;;;;;;;3.20;100.00;94619.66;5055481;28;20072;-45
2022/12/14 10:18:20;;;;;;;28.08;18.33;;;;;;;3.02;100.00;94610.00;5068001;28;20080;-46
2022/12/14 10:21:12;;;;;;;28.00;17.27;;;;;;;3.57;100.00;94599.56;5044968;28;20091;-44
2022/12/14 10:23:49;;;;;;;28.90;17.40;;;;;;;3.25;100.00;94579.22;5049520;28;20091;-39
2022/12/14 10:26:20;;;;;;;28.45;17.70;;;;;;;3.22;100.00;94574.28;5049200;28;20099;-42
2022/12/14 10:28:51;;;;;;;25.80;14.35;;;;;;;2.70;100.00;94581.00;5051293;28;20083;-45
2022/12/14 10:31:32;;;;;;;28.02;17.80;;;;;;;3.95;100.00;94565.53;5060677;28;20079;-43
2022/12/14 10:34:06;;;;;;;22.67;13.48;;;;;;;3.80;100.00;94578.28;5051340;28;20084;-46
2022/12/14 10:36:47;;;;;;;24.98;15.27;;;;;;;3.79;100.00;94574.84;5059754;28;20080;-44
2022/12/14 10:39:22;;;;;;;25.70;16.05;;;;;;;3.50;100.00;94569.84;5055770;28;20076;-44
2022/12/14 10:41:55;;;;;;;26.77;16.08;;;;;;;3.05;100.00;94564.66;5054420;28;20080;-45
2022/12/14 10:44:28;;;;;;;25.10;16.00;;;;;;;2.90;100.00;94558.31;5051969;28;20087;-44
2022/12/14 10:47:01;;;;;;;20.35;14.27;;;;;;;2.64;100.00;94563.34;5052836;28;20538;-41
2022/12/14 10:49:34;;;;;;;27.90;19.13;;;;;;;2.73;100.00;94565.91;5064629;28;20447;-44
2022/12/14 10:52:05;;;;;;;25.25;16.02;;;;;;;2.60;100.00;94552.41;5051958;28;20092;-42
2022/12/14 10:54:37;;;;;;;26.23;16.63;;;;;;;3.09;100.00;94556.41;5055391;28;20080;-43
2022/12/14 10:57:05;;;;;;;29.88;20.05;;;;;;;2.48;100.00;94551.78;5060814;28;20126;-41
2022/12/14 10:59:35;;;;;;;30.30;18.75;;;;;;;2.97;100.00;94547.16;5053800;28;20091;-47
2022/12/14 11:02:15;;;;;;;26.52;15.85;;;;;;;3.17;100.00;94534.84;5055716;28;20084;-42
2022/12/14 11:04:49;;;;;;;27.52;18.27;;;;;;;2.98;100.00;94545.38;5049237;28;20077;-44
2022/12/14 11:07:19;;;;;;;28.92;18.20;;;;;;;3.42;100.00;94543.72;5054731;28;20102;-42
2022/12/14 11:09:49;;;;;;;29.88;17.92;;;;;;;3.59;100.00;94536.88;5060518;28;20086;-42
2022/12/14 11:12:20;;;;;;;27.27;16.83;;;;;;;3.56;100.00;94540.59;5052320;28;20118;-46
2022/12/14 11:14:54;;;;;;;33.90;18.67;;;;;;;4.19;100.00;94544.03;5053496;28;20084;-44
2022/12/14 11:17:35;;;;;;;30.45;17.90;;;;;;;4.85;100.00;94555.66;5054930;28;20171;-46
2022/12/14 11:20:14;;;;;;;;;;;;;;;4.86;100.00;94544.25;5066081;28;20091;-46
2022/12/14 11:22:44;;;;;;;28.42;16.73;;;;;;;4.82;100.00;94550.72;5049131;28;19928;-42
2022/12/14 11:25:31;;;;;;;26.42;15.63;;;;;;;4.78;100.00;94550.22;5055030;28;20087;-42
2022/12/14 11:28:02;;;;;;;23.63;16.23;;;;;;;4.59;100.00;94555.69;5048954;28;20534;-44
2022/12/14 11:30:30;;;;;;;25.02;16.55;;;;;;;4.61;100.00;94543.28;5050614;28;20088;-44
2022/12/14 11:32:59;;;;;;;27.58;17.52;;;;;;;4.08;100.00;94559.94;5058235;28;20083;-45
2022/12/14 11:35:27;;;;;;;27.23;18.17;;;;;;;3.91;100.00;94554.56;5058178;28;20086;-46
2022/12/14 11:37:58;;;;;;;30.70;18.65;;;;;;;4.50;100.00;94544.38;5055452;28;20103;-43
2022/12/14 11:40:28;;;;;;;29.63;18.15;;;;;;;4.14;100.00;94541.06;5051576;28;20088;-44
2022/12/14 11:42:59;;;;;;;31.35;19.25;;;;;;;4.01;100.00;94557.09;5055535;28;20474;-42
2022/12/14 11:45:30;;;;;;;29.40;18.13;;;;;;;4.24;100.00;94545.22;5056729;28;20466;-42
2022/12/14 11:48:17;;;;;;;29.85;18.85;;;;;;;4.12;100.00;94537.78;5060529;28;20069;-41